createdAt,value
2019-02-17T00:01:28.729Z,87.00
2019-02-17T00:03:57.751Z,88.00
2019-02-17T00:06:26.913Z,86.50
2019-02-17T00:08:59.286Z,89.00
2019-02-17T00:11:28.318Z,86.00
2019-02-17T00:13:57.444Z,87.00
2019-02-17T00:16:26.558Z,89.00
2019-02-17T00:18:55.668Z,80.00
2019-02-17T00:21:24.941Z,85.50
2019-02-17T00:26:33.570Z,88.50
2019-02-17T00:29:08.005Z,85.50
2019-02-17T00:31:37.085Z,83.00
2019-02-17T00:34:06.172Z,82.50
2019-02-17T00:36:35.457Z,81.50
2019-02-17T00:39:09.178Z,84.00
2019-02-17T00:41:38.310Z,82.50
2019-02-17T00:44:09.542Z,78.50
2019-02-17T00:46:38.550Z,85.50
2019-02-17T00:49:10.741Z,84.00
2019-02-17T00:51:39.757Z,84.50
2019-02-17T00:54:13.198Z,78.00
2019-02-17T00:56:42.275Z,78.00
2019-02-17T00:59:11.341Z,76.50
2019-02-17T01:01:40.368Z,80.00
2019-02-17T01:04:09.397Z,80.50
2019-02-17T01:06:38.405Z,80.50
2019-02-17T01:09:08.763Z,80.50
2019-02-17T01:11:37.829Z,82.50
2019-02-17T01:14:06.979Z,81.00
2019-02-17T01:16:36.037Z,77.00
2019-02-17T01:19:05.559Z,83.00
2019-02-17T01:21:36.777Z,79.00
2019-02-17T01:24:06.394Z,79.50
2019-02-17T01:26:35.394Z,80.50
2019-02-17T01:29:07.532Z,78.00
2019-02-17T01:31:36.639Z,76.00
2019-02-17T01:34:10.965Z,73.00
2019-02-17T01:36:40.125Z,76.00
2019-02-17T01:39:09.331Z,77.50
2019-02-17T01:41:38.470Z,76.00
2019-02-17T01:44:08.456Z,76.50
2019-02-17T01:46:38.504Z,77.00
2019-02-17T01:49:08.239Z,78.00
2019-02-17T01:51:37.289Z,77.00
2019-02-17T01:54:06.543Z,76.00
2019-02-17T01:56:37.897Z,78.00
2019-02-17T01:59:06.988Z,77.00
2019-02-17T02:01:35.976Z,75.50
2019-02-17T02:04:05.074Z,79.00
2019-02-17T02:06:34.090Z,75.50
2019-02-17T02:09:03.289Z,71.50
2019-02-17T02:11:32.383Z,78.50
2019-02-17T02:14:01.421Z,76.00
2019-02-17T02:16:30.573Z,74.00
2019-02-17T02:18:59.676Z,72.00
2019-02-17T02:21:28.769Z,74.50
2019-02-17T02:23:57.864Z,79.50
2019-02-17T02:26:26.935Z,75.50
2019-02-17T02:28:56.054Z,76.00
2019-02-17T02:31:25.096Z,72.00
2019-02-17T02:33:54.108Z,72.50
2019-02-17T02:36:24.651Z,75.50
2019-02-17T02:38:53.749Z,73.00
2019-02-17T02:41:33.849Z,72.00
2019-02-17T02:43:53.543Z,72.50
2019-02-17T02:46:22.673Z,79.50
2019-02-17T02:48:51.695Z,77.50
2019-02-17T02:51:20.773Z,79.50
2019-02-17T02:53:49.868Z,78.50
2019-02-17T02:56:18.883Z,78.00
2019-02-17T02:58:47.926Z,79.00
2019-02-17T03:01:16.952Z,71.50
2019-02-17T03:03:46.263Z,78.50
2019-02-17T03:06:28.247Z,76.50
2019-02-17T03:08:57.300Z,77.00
2019-02-17T03:11:26.338Z,76.00
2019-02-17T03:13:55.409Z,73.00
2019-02-17T03:16:24.499Z,75.50
2019-02-17T03:18:53.643Z,76.50
2019-02-17T03:21:22.650Z,76.00
2019-02-17T03:23:52.762Z,72.00
2019-02-17T03:26:21.816Z,76.00
2019-02-17T03:28:50.920Z,76.50
2019-02-17T03:31:19.953Z,72.50
2019-02-17T03:33:49.443Z,75.50
2019-02-17T03:36:18.432Z,76.50
2019-02-17T03:38:47.446Z,77.00
2019-02-17T03:41:16.443Z,77.50
2019-02-17T03:43:45.449Z,71.00
2019-02-17T03:46:14.586Z,76.50
2019-02-17T03:48:43.601Z,75.50
2019-02-17T03:51:12.822Z,74.50
2019-02-17T03:53:41.774Z,76.00
2019-02-17T03:56:10.862Z,76.00
2019-02-17T03:58:39.908Z,74.00
2019-02-17T04:01:08.974Z,76.00
2019-02-17T04:03:38.010Z,75.50
2019-02-17T04:06:07.072Z,76.00
2019-02-17T04:08:36.050Z,70.50
2019-02-17T04:11:05.155Z,73.50
2019-02-17T04:13:34.250Z,76.00
2019-02-17T04:16:03.374Z,78.50
2019-02-17T04:18:32.724Z,76.00
2019-02-17T04:21:01.853Z,72.00
2019-02-17T04:23:31.761Z,75.50
2019-02-17T04:26:00.929Z,76.50
2019-02-17T04:32:35.446Z,72.00
2019-02-17T04:41:42.381Z,71.00
2019-02-17T04:44:11.592Z,78.50
2019-02-17T04:46:40.701Z,82.50
2019-02-17T04:49:11.190Z,71.50
2019-02-17T04:51:40.261Z,74.00
2019-02-17T04:54:09.251Z,69.00
2019-02-17T04:56:38.777Z,68.50
2019-02-17T04:59:08.147Z,74.50
2019-02-17T05:01:37.233Z,71.50
2019-02-17T05:04:06.365Z,78.00
2019-02-17T05:06:35.453Z,73.00
2019-02-17T05:09:05.715Z,73.50
2019-02-17T05:11:35.012Z,72.00
2019-02-17T05:14:27.098Z,74.50
2019-02-17T05:21:03.843Z,72.00
2019-02-17T05:23:32.918Z,75.00
2019-02-17T05:26:01.934Z,78.50
2019-02-17T05:28:31.036Z,76.50
2019-02-17T05:31:00.125Z,77.00
2019-02-17T05:33:29.202Z,77.00
2019-02-17T05:35:58.240Z,76.00
2019-02-17T05:38:27.232Z,75.50
2019-02-17T05:40:56.339Z,71.50
2019-02-17T05:43:25.354Z,75.50
2019-02-17T05:45:54.373Z,76.00
2019-02-17T05:48:23.490Z,75.00
2019-02-17T05:50:52.559Z,69.50
2019-02-17T05:53:21.666Z,73.00
2019-02-17T05:55:52.222Z,71.00
2019-02-17T05:58:22.798Z,72.00
2019-02-17T06:01:02.986Z,72.00
2019-02-17T06:03:22.699Z,70.50
2019-02-17T06:05:51.723Z,74.50
2019-02-17T06:08:20.830Z,76.50
2019-02-17T06:10:49.846Z,76.00
2019-02-17T06:13:21.011Z,71.00
2019-02-17T06:15:50.021Z,71.00
2019-02-17T06:18:19.013Z,71.00
2019-02-17T06:20:48.062Z,71.50
2019-02-17T06:23:17.029Z,72.00
2019-02-17T06:25:46.106Z,72.50
2019-02-17T06:28:15.179Z,73.50
2019-02-17T06:30:44.250Z,74.00
2019-02-17T06:33:13.280Z,74.50
2019-02-17T06:35:42.301Z,70.00
2019-02-17T06:38:11.281Z,69.50
2019-02-17T06:40:40.305Z,71.50
2019-02-17T06:43:09.323Z,74.50
2019-02-17T06:45:38.404Z,73.50
2019-02-17T06:48:07.459Z,76.50
2019-02-17T06:50:36.551Z,73.50
2019-02-17T06:53:05.563Z,69.00
2019-02-17T06:55:53.494Z,67.00
2019-02-17T06:58:22.694Z,76.00
2019-02-17T07:00:54.019Z,69.00
2019-02-17T07:03:23.117Z,69.00
2019-02-17T07:06:03.324Z,76.50
2019-02-17T07:08:32.403Z,70.50
2019-02-17T07:11:01.557Z,71.50
2019-02-17T07:13:32.093Z,70.00
2019-02-17T07:16:01.187Z,73.50
2019-02-17T07:18:30.275Z,76.00
2019-02-17T07:20:59.337Z,71.50
2019-02-17T07:23:28.353Z,72.50
2019-02-17T07:25:57.440Z,75.50
2019-02-17T07:28:26.558Z,70.00
2019-02-17T07:30:55.963Z,72.00
2019-02-17T07:33:25.016Z,72.00
2019-02-17T07:35:56.490Z,75.50
2019-02-17T07:38:25.532Z,74.50
2019-02-17T07:40:54.553Z,75.50
2019-02-17T07:43:23.735Z,77.00
2019-02-17T07:45:52.772Z,74.00
2019-02-17T07:48:21.846Z,71.00
2019-02-17T07:50:50.893Z,78.50
2019-02-17T07:53:19.916Z,76.00
2019-02-17T07:55:50.600Z,74.50
2019-02-17T07:58:19.658Z,73.00
2019-02-17T08:00:48.748Z,73.00
2019-02-17T08:03:17.825Z,77.00
2019-02-17T08:05:46.888Z,73.00
2019-02-17T08:08:15.984Z,75.00
2019-02-17T08:10:45.154Z,76.00
2019-02-17T08:13:14.350Z,77.50
2019-02-17T08:15:44.531Z,75.50
2019-02-17T08:18:13.621Z,72.50
2019-02-17T08:20:42.683Z,77.50
2019-02-17T08:23:11.850Z,81.00
2019-02-17T08:25:41.034Z,77.00
2019-02-17T08:28:10.148Z,72.00
2019-02-17T08:30:39.199Z,76.50
2019-02-17T08:33:08.210Z,80.50
2019-02-17T08:35:37.233Z,77.50
2019-02-17T08:38:06.260Z,78.00
2019-02-17T08:40:35.270Z,81.00
2019-02-17T08:43:04.256Z,76.50
2019-02-17T08:45:33.371Z,76.00
2019-02-17T08:48:02.510Z,76.00
2019-02-17T08:50:31.549Z,78.00
2019-02-17T08:53:00.582Z,81.00
2019-02-17T08:55:29.797Z,78.00
2019-02-17T08:57:59.309Z,76.00
2019-02-17T09:00:28.319Z,73.50
2019-02-17T09:02:57.383Z,76.50
2019-02-17T09:05:26.408Z,77.50
2019-02-17T09:07:55.513Z,78.00
2019-02-17T09:10:24.604Z,78.00
2019-02-17T09:12:53.592Z,79.50
2019-02-17T09:15:22.622Z,79.50
2019-02-17T09:17:51.721Z,81.00
2019-02-17T09:20:26.026Z,80.50
2019-02-17T09:22:55.148Z,75.00
2019-02-17T09:25:24.219Z,76.00
2019-02-17T09:27:53.270Z,77.00
2019-02-17T09:30:22.399Z,79.50
2019-02-17T09:32:54.905Z,77.50
2019-02-17T09:35:23.958Z,75.25
2019-02-17T09:37:52.959Z,78.00
2019-02-17T09:40:21.969Z,76.75
2019-02-17T09:42:51.048Z,77.50
2019-02-17T09:45:22.380Z,75.75
2019-02-17T09:47:51.479Z,74.75
2019-02-17T09:50:20.685Z,73.75
2019-02-17T09:52:50.778Z,72.75
2019-02-17T09:55:19.947Z,70.25
2019-02-17T09:57:48.978Z,72.00
2019-02-17T10:00:18.232Z,72.75
2019-02-17T10:02:47.228Z,71.25
2019-02-17T10:05:16.307Z,69.25
2019-02-17T10:07:45.338Z,70.25
2019-02-17T10:10:14.813Z,67.50
2019-02-17T10:12:43.930Z,66.00
2019-02-17T10:15:13.530Z,62.25
2019-02-17T10:17:42.778Z,66.00
2019-02-17T10:20:12.028Z,68.50
2019-02-17T10:22:41.189Z,66.25
2019-02-17T10:25:10.415Z,68.25
2019-02-17T10:27:39.523Z,67.25
2019-02-17T10:30:10.564Z,63.75
2019-02-17T10:32:39.527Z,64.00
2019-02-17T10:35:08.650Z,66.50
2019-02-17T10:37:40.079Z,65.25
2019-02-17T10:40:11.152Z,67.75
2019-02-17T10:42:40.137Z,65.75
2019-02-17T10:45:11.026Z,65.75
2019-02-17T10:47:41.657Z,67.25
2019-02-17T10:50:10.852Z,62.25
2019-02-17T10:52:39.933Z,63.50
2019-02-17T10:55:09.234Z,64.25
2019-02-17T10:57:39.660Z,63.25
2019-02-17T11:00:12.347Z,64.25
2019-02-17T11:02:47.001Z,64.00
2019-02-17T11:05:12.270Z,61.25
2019-02-17T11:07:41.246Z,64.25
2019-02-17T11:10:10.503Z,62.75
2019-02-17T11:12:39.579Z,64.50
2019-02-17T11:15:10.747Z,63.75
2019-02-17T11:17:41.252Z,61.25
2019-02-17T11:20:10.632Z,61.75
2019-02-17T11:22:39.660Z,56.75
2019-02-17T11:25:08.933Z,61.50
2019-02-17T11:27:38.097Z,64.00
2019-02-17T11:30:09.463Z,59.00
2019-02-17T11:32:38.599Z,60.50
2019-02-17T11:35:08.459Z,59.00
2019-02-17T11:37:37.557Z,62.75
2019-02-17T11:40:08.745Z,63.75
2019-02-17T11:42:40.262Z,59.25
2019-02-17T11:45:12.991Z,64.50
2019-02-17T11:47:41.981Z,57.75
2019-02-17T11:50:11.328Z,63.50
2019-02-17T11:52:40.528Z,64.25
2019-02-17T11:55:10.954Z,59.00
2019-02-17T11:57:49.556Z,62.50
2019-02-17T12:00:20.185Z,62.00
2019-02-17T12:02:50.266Z,61.25
2019-02-17T12:05:19.485Z,64.25
2019-02-17T12:07:50.359Z,63.50
2019-02-17T12:10:19.512Z,64.00
2019-02-17T12:12:48.691Z,62.75
2019-02-17T12:15:17.871Z,59.75
2019-02-17T12:17:48.862Z,59.75
2019-02-17T12:20:37.974Z,59.50
2019-02-17T12:23:15.644Z,59.00
2019-02-17T12:26:16.113Z,63.75
2019-02-17T12:28:49.801Z,60.25
2019-02-17T12:31:25.804Z,62.00
2019-02-17T12:33:54.849Z,59.25
2019-02-17T12:36:23.923Z,57.25
2019-02-17T12:38:52.970Z,58.50
2019-02-17T12:41:22.043Z,56.50
2019-02-17T12:43:51.074Z,52.75
2019-02-17T12:46:20.106Z,57.00
2019-02-17T12:48:49.505Z,55.75
2019-02-17T12:51:24.305Z,52.75
2019-02-17T12:53:55.789Z,54.75
2019-02-17T12:56:25.827Z,54.75
2019-02-17T12:58:56.151Z,56.75
2019-02-17T13:01:25.171Z,54.75
2019-02-17T13:03:54.195Z,57.75
2019-02-17T13:06:23.241Z,57.00
2019-02-17T13:08:52.271Z,51.25
2019-02-17T13:11:21.280Z,53.25
2019-02-17T13:13:50.331Z,52.75
2019-02-17T13:16:19.462Z,56.00
2019-02-17T13:18:48.476Z,55.75
2019-02-17T13:21:17.597Z,54.75
2019-02-17T13:23:46.554Z,51.50
2019-02-17T13:26:15.659Z,55.25
2019-02-17T13:28:44.654Z,51.75
2019-02-17T13:31:13.714Z,53.25
2019-02-17T13:33:42.741Z,55.75
2019-02-17T13:36:11.915Z,53.25
2019-02-17T13:38:40.941Z,54.00
2019-02-17T13:41:09.948Z,55.75
2019-02-17T13:43:40.181Z,53.50
2019-02-17T13:46:09.195Z,55.50
2019-02-17T13:48:38.274Z,57.00
2019-02-17T13:51:07.359Z,53.00
2019-02-17T13:53:36.468Z,54.50
2019-02-17T13:56:05.526Z,55.00
2019-02-17T13:58:34.487Z,55.25
2019-02-17T14:01:03.579Z,55.00
2019-02-17T14:03:32.710Z,54.75
2019-02-17T14:06:02.850Z,57.00
2019-02-17T14:08:31.905Z,52.25
2019-02-17T14:11:01.075Z,54.00
2019-02-17T14:13:30.108Z,52.25
2019-02-17T14:15:59.152Z,53.25
2019-02-17T14:18:28.195Z,52.75
2019-02-17T14:20:57.307Z,51.75
2019-02-17T14:23:26.313Z,53.00
2019-02-17T14:25:55.433Z,51.00
2019-02-17T14:28:24.657Z,50.50
2019-02-17T14:30:53.657Z,53.00
2019-02-17T14:33:22.664Z,50.75
2019-02-17T14:35:51.736Z,50.25
2019-02-17T14:38:20.711Z,51.75
2019-02-17T14:40:49.734Z,52.00
2019-02-17T14:43:18.740Z,50.25
2019-02-17T14:45:48.825Z,49.75
2019-02-17T14:48:17.853Z,47.50
2019-02-17T14:50:46.889Z,49.75
2019-02-17T14:53:16.248Z,53.50
2019-02-17T14:55:45.550Z,50.00
2019-02-17T14:58:16.249Z,52.00
2019-02-17T15:00:45.301Z,54.00
2019-02-17T15:03:21.626Z,50.25
2019-02-17T15:06:33.685Z,55.75
2019-02-17T15:09:04.253Z,55.75
2019-02-17T15:11:35.559Z,55.25
2019-02-17T15:14:04.816Z,57.00
2019-02-17T15:20:17.778Z,55.25
2019-02-17T15:22:54.931Z,59.25
2019-02-17T15:25:24.167Z,59.50
2019-02-17T15:27:53.367Z,59.25
2019-02-17T15:30:22.487Z,58.75
2019-02-17T15:32:53.025Z,57.00
2019-02-17T15:35:25.033Z,55.50
2019-02-17T15:37:56.427Z,57.00
2019-02-17T15:40:25.557Z,65.50
2019-02-17T15:42:54.662Z,55.75
2019-02-17T15:45:23.890Z,63.25
2019-02-17T15:47:52.972Z,63.50
2019-02-17T15:50:23.569Z,64.75
2019-02-17T15:52:54.919Z,58.25
2019-02-17T15:55:24.210Z,54.25
2019-02-17T15:57:53.226Z,59.25
2019-02-17T16:00:22.436Z,58.00
2019-02-17T16:02:51.499Z,57.25
2019-02-17T16:05:20.612Z,56.00
2019-02-17T16:07:49.658Z,53.75
2019-02-17T16:10:18.813Z,58.75
2019-02-17T16:12:48.209Z,58.00
2019-02-17T16:15:17.481Z,59.00
2019-02-17T16:17:46.626Z,56.00
2019-02-17T16:20:15.922Z,59.00
2019-02-17T16:22:51.590Z,56.50
2019-02-17T16:25:22.230Z,58.00
2019-02-17T16:27:51.552Z,58.00
2019-02-17T16:30:24.620Z,56.00
2019-02-17T16:33:54.417Z,60.50
2019-02-17T16:39:31.558Z,59.50
2019-02-17T16:42:00.590Z,63.50
2019-02-17T16:44:29.711Z,58.75
2019-02-17T16:46:58.737Z,56.25
2019-02-17T16:49:27.784Z,65.50
2019-02-17T16:51:58.422Z,61.50
2019-02-17T16:54:27.545Z,63.50
2019-02-17T16:56:56.554Z,64.50
2019-02-17T16:59:25.644Z,64.25
2019-02-17T17:01:55.297Z,62.25
2019-02-17T17:04:24.477Z,64.00
2019-02-17T17:06:53.582Z,62.50
2019-02-17T17:09:22.676Z,63.75
2019-02-17T17:11:51.721Z,62.75
2019-02-17T17:14:20.846Z,64.25
2019-02-17T17:16:49.842Z,65.75
2019-02-17T17:19:18.933Z,67.25
2019-02-17T17:21:48.003Z,63.00
2019-02-17T17:24:17.150Z,65.00
2019-02-17T17:26:46.229Z,60.25
2019-02-17T17:29:15.232Z,60.50
2019-02-17T17:31:44.272Z,62.25
2019-02-17T17:34:13.436Z,60.50
2019-02-17T17:36:42.441Z,61.75
2019-02-17T17:39:11.541Z,63.75
2019-02-17T17:41:40.608Z,60.00
2019-02-17T17:44:09.635Z,61.75
2019-02-17T17:46:38.776Z,62.75
2019-02-17T17:49:07.778Z,64.75
2019-02-17T17:51:36.780Z,65.25
2019-02-17T17:54:05.806Z,63.00
2019-02-17T17:56:34.807Z,65.50
2019-02-17T17:59:03.972Z,59.75
2019-02-17T18:01:32.997Z,68.25
2019-02-17T18:04:02.039Z,67.50
2019-02-17T18:06:33.813Z,69.50
2019-02-17T18:09:02.805Z,64.50
2019-02-17T18:11:31.810Z,71.00
2019-02-17T18:14:00.836Z,67.75
2019-02-17T18:16:29.868Z,66.75
2019-02-17T18:18:58.944Z,68.75
2019-02-17T18:21:28.047Z,69.25
2019-02-17T18:23:57.179Z,77.00
2019-02-17T18:26:26.172Z,73.25
2019-02-17T18:28:55.201Z,74.25
2019-02-17T18:31:24.295Z,68.25
2019-02-17T18:33:53.353Z,77.25
2019-02-17T18:36:22.393Z,75.25
2019-02-17T18:38:51.424Z,74.50
2019-02-17T18:41:20.437Z,75.50
2019-02-17T18:43:50.475Z,75.50
2019-02-17T18:46:19.594Z,76.75
2019-02-17T18:48:49.659Z,74.75
2019-02-17T18:51:18.613Z,78.75
2019-02-17T18:53:49.926Z,78.00
2019-02-17T18:56:19.108Z,81.25
2019-02-17T18:58:48.410Z,78.00
2019-02-17T19:01:17.469Z,76.00
2019-02-17T19:03:46.551Z,76.25
2019-02-17T19:06:15.575Z,78.25
2019-02-17T19:08:44.613Z,77.50
2019-02-17T19:11:13.637Z,79.25
2019-02-17T19:13:42.733Z,80.25
2019-02-17T19:16:11.714Z,78.25
2019-02-17T19:18:40.716Z,86.75
2019-02-17T19:21:09.761Z,80.75
2019-02-17T19:23:40.081Z,81.00
2019-02-17T19:26:09.224Z,85.75
2019-02-17T19:28:38.320Z,77.50
2019-02-17T19:31:07.520Z,77.75
2019-02-17T19:33:36.562Z,76.25
2019-02-17T19:36:08.455Z,78.75
2019-02-17T19:38:37.505Z,81.25
2019-02-17T19:41:06.772Z,81.50
2019-02-17T19:43:35.828Z,81.00
2019-02-17T19:46:04.849Z,79.25
2019-02-17T19:48:33.962Z,76.25
2019-02-17T19:51:05.354Z,85.00
2019-02-17T19:53:34.413Z,77.25
2019-02-17T19:56:03.577Z,78.75
2019-02-17T19:58:32.673Z,72.75
2019-02-17T20:01:01.905Z,71.75
2019-02-17T20:03:46.121Z,71.50
2019-02-17T20:06:17.315Z,70.75
2019-02-17T20:08:46.315Z,71.50
2019-02-17T20:11:15.400Z,75.00
2019-02-17T20:13:44.469Z,79.75
2019-02-17T20:16:13.495Z,72.50
2019-02-17T20:18:42.537Z,77.50
2019-02-17T20:21:11.615Z,79.25
2019-02-17T20:23:40.632Z,81.50
2019-02-17T20:26:09.686Z,78.25
2019-02-17T20:28:43.409Z,78.25
2019-02-17T20:31:09.543Z,74.50
2019-02-17T20:33:38.590Z,80.25
2019-02-17T20:36:07.725Z,78.00
2019-02-17T20:38:36.811Z,71.00
2019-02-17T20:41:06.094Z,73.50
2019-02-17T20:43:37.475Z,71.00
2019-02-17T20:46:06.627Z,77.50
2019-02-17T20:48:35.633Z,76.25
2019-02-17T20:51:04.740Z,68.25
2019-02-17T20:53:33.750Z,68.25
2019-02-17T20:56:03.132Z,73.25
2019-02-17T20:58:32.166Z,73.00
2019-02-17T21:01:01.377Z,75.75
2019-02-17T21:03:30.488Z,71.25
2019-02-17T21:05:59.579Z,69.00
2019-02-17T21:08:28.654Z,65.50
2019-02-17T21:10:57.715Z,70.25
2019-02-17T21:13:26.835Z,73.00
2019-02-17T21:15:55.822Z,68.50
2019-02-17T21:18:24.965Z,71.00
2019-02-17T21:20:54.079Z,73.00
2019-02-17T21:23:23.197Z,76.00
2019-02-17T21:25:52.248Z,71.50
2019-02-17T21:28:22.672Z,80.00
2019-02-17T21:30:51.793Z,71.25
2019-02-17T21:33:20.885Z,61.00
2019-02-17T21:35:50.102Z,70.50
2019-02-17T21:38:20.765Z,68.25
2019-02-17T21:40:49.824Z,69.25
2019-02-17T21:43:18.942Z,70.75
2019-02-17T21:45:48.041Z,69.75
2019-02-17T21:48:17.154Z,73.50
2019-02-17T21:50:46.444Z,69.50
2019-02-17T21:53:20.245Z,69.00
2019-02-17T21:56:17.375Z,53.50
2019-02-17T21:58:46.497Z,57.75
2019-02-17T22:01:16.945Z,61.75
2019-02-17T22:03:55.807Z,53.00
2019-02-17T22:06:33.413Z,61.50
2019-02-17T22:09:01.524Z,61.75
2019-02-17T22:11:31.913Z,61.25
2019-02-17T22:14:30.058Z,51.00
2019-02-17T22:18:03.265Z,51.25
2019-02-17T22:20:43.684Z,60.25
2019-02-17T22:23:40.916Z,58.50
2019-02-17T22:31:28.720Z,57.50
2019-02-17T22:33:32.653Z,60.50
2019-02-17T22:36:12.513Z,56.75
2019-02-17T22:38:41.788Z,59.50
2019-02-17T22:41:11.003Z,56.00
2019-02-17T22:43:40.243Z,58.25
2019-02-17T22:46:09.291Z,50.25
2019-02-17T22:48:38.482Z,59.75
2019-02-17T22:51:07.675Z,54.75
2019-02-17T22:53:43.417Z,57.25
2019-02-17T22:56:07.638Z,59.75
2019-02-17T22:58:36.763Z,55.50
2019-02-17T23:01:09.106Z,58.50
2019-02-17T23:03:38.222Z,54.25
2019-02-17T23:06:07.382Z,55.25
2019-02-17T23:08:36.596Z,56.50
2019-02-17T23:11:05.755Z,51.25
2019-02-17T23:13:34.807Z,53.00
2019-02-17T23:16:03.922Z,48.25
2019-02-17T23:18:33.034Z,53.00
2019-02-17T23:21:02.124Z,53.50
2019-02-17T23:23:31.216Z,52.50
2019-02-17T23:26:00.273Z,56.00
2019-02-17T23:28:29.313Z,57.25
2019-02-17T23:30:58.437Z,60.25
2019-02-17T23:33:27.453Z,48.00
2019-02-17T23:35:56.489Z,55.00
2019-02-17T23:38:25.548Z,54.00
2019-02-17T23:40:54.583Z,54.00
2019-02-17T23:43:23.782Z,58.50
2019-02-17T23:45:52.861Z,61.50
2019-02-17T23:48:21.922Z,52.00
2019-02-17T23:50:52.190Z,55.00
2019-02-17T23:53:21.286Z,52.50
2019-02-17T23:55:50.376Z,57.00
2019-02-17T23:58:19.470Z,55.00
